createdAt,value
2023-01-30T00:01:49.184Z,14.87
2023-01-30T00:03:51.628Z,16.23
2023-01-30T00:05:54.035Z,14.60
2023-01-30T00:07:56.200Z,14.80
2023-01-30T00:09:58.797Z,14.30
2023-01-30T00:12:00.906Z,15.77
2023-01-30T00:14:03.099Z,14.30
2023-01-30T00:16:06.001Z,15.77
2023-01-30T00:18:08.371Z,16.53
2023-01-30T00:20:11.216Z,15.87
2023-01-30T00:22:13.359Z,15.07
2023-01-30T00:24:15.577Z,14.60
2023-01-30T00:26:17.896Z,14.80
2023-01-30T00:28:20.036Z,14.80
2023-01-30T00:30:22.222Z,14.10
2023-01-30T00:32:26.501Z,15.83
2023-01-30T00:34:28.671Z,15.33
2023-01-30T00:36:30.810Z,14.23
2023-01-30T00:38:34.507Z,13.70
2023-01-30T00:40:36.708Z,16.80
2023-01-30T00:42:57.589Z,14.77
2023-01-30T00:45:18.661Z,14.77
2023-01-30T00:47:21.547Z,13.53
2023-01-30T00:49:23.677Z,15.50
2023-01-30T00:51:25.924Z,16.37
2023-01-30T00:53:29.364Z,14.40
2023-01-30T00:55:31.586Z,14.93
2023-01-30T00:57:33.759Z,15.50
2023-01-30T00:59:35.868Z,13.63
2023-01-30T01:01:38.160Z,13.60
2023-01-30T01:03:40.357Z,14.37
2023-01-30T01:05:43.115Z,15.53
2023-01-30T01:07:45.234Z,15.07
2023-01-30T01:09:47.327Z,14.93
2023-01-30T01:11:49.418Z,14.13
2023-01-30T01:13:53.945Z,13.10
2023-01-30T01:15:56.067Z,14.80
2023-01-30T01:17:58.297Z,14.77
2023-01-30T01:20:01.867Z,14.47
2023-01-30T01:22:04.036Z,12.83
2023-01-30T01:24:06.731Z,13.43
2023-01-30T01:26:09.076Z,14.37
2023-01-30T01:28:11.223Z,13.67
2023-01-30T01:30:13.787Z,15.17
2023-01-30T01:32:15.964Z,15.03
2023-01-30T01:34:18.119Z,16.00
2023-01-30T01:36:49.961Z,15.57
2023-01-30T01:38:44.866Z,15.37
2023-01-30T01:41:02.289Z,13.13
2023-01-30T01:43:21.822Z,13.30
2023-01-30T01:45:25.092Z,12.40
2023-01-30T01:47:27.553Z,12.83
2023-01-30T01:49:33.101Z,12.30
2023-01-30T01:51:39.040Z,13.13
2023-01-30T01:53:46.717Z,13.60
2023-01-30T01:55:51.914Z,13.13
2023-01-30T01:57:58.205Z,13.40
2023-01-30T02:00:11.660Z,14.00
2023-01-30T02:02:17.460Z,12.80
2023-01-30T02:04:39.744Z,14.83
2023-01-30T02:06:42.312Z,12.90
2023-01-30T02:08:48.463Z,12.23
2023-01-30T02:11:10.213Z,12.03
2023-01-30T02:13:12.647Z,10.90
2023-01-30T02:15:15.454Z,11.97
2023-01-30T02:17:18.195Z,13.33
2023-01-30T02:19:35.171Z,13.30
2023-01-30T02:22:22.359Z,12.13
2023-01-30T02:24:30.134Z,11.00
2023-01-30T02:26:45.632Z,13.73
2023-01-30T02:28:59.530Z,12.40
2023-01-30T02:31:10.686Z,12.43
2023-01-30T02:33:41.319Z,12.73
2023-01-30T02:36:03.051Z,11.27
2023-01-30T02:38:36.656Z,14.13
2023-01-30T02:41:13.962Z,14.17
2023-01-30T02:43:46.939Z,11.17
2023-01-30T02:46:05.265Z,12.57
2023-01-30T02:48:10.503Z,11.70
2023-01-30T02:50:29.274Z,12.50
2023-01-30T02:52:32.056Z,9.90
2023-01-30T02:54:34.247Z,12.93
2023-01-30T02:56:48.464Z,12.60
2023-01-30T02:59:06.236Z,11.20
2023-01-30T03:01:21.088Z,12.33
2023-01-30T03:03:44.777Z,13.40
2023-01-30T03:06:09.786Z,11.70
2023-01-30T03:08:17.882Z,10.70
2023-01-30T03:10:44.110Z,13.07
2023-01-30T03:12:50.287Z,10.10
2023-01-30T03:14:59.680Z,12.27
2023-01-30T03:17:04.623Z,12.70
2023-01-30T03:19:11.487Z,12.10
2023-01-30T03:21:13.673Z,12.17
2023-01-30T03:23:15.886Z,12.67
2023-01-30T03:25:21.025Z,12.20
2023-01-30T03:27:23.905Z,12.77
2023-01-30T03:29:26.083Z,13.40
2023-01-30T03:31:28.460Z,12.80
2023-01-30T03:33:31.528Z,10.70
2023-01-30T03:35:34.303Z,13.60
2023-01-30T03:37:37.709Z,14.50
2023-01-30T03:39:39.963Z,13.80
2023-01-30T03:41:42.573Z,13.60
2023-01-30T03:43:44.808Z,12.07
2023-01-30T03:45:47.045Z,12.50
2023-01-30T03:47:49.386Z,11.10
2023-01-30T03:49:52.396Z,12.00
2023-01-30T03:51:54.746Z,12.67
2023-01-30T03:53:56.880Z,13.83
2023-01-30T03:55:59.035Z,12.17
2023-01-30T03:58:06.275Z,14.23
2023-01-30T04:00:10.020Z,14.10
2023-01-30T04:02:26.303Z,14.07
2023-01-30T04:04:29.377Z,10.97
2023-01-30T04:06:33.182Z,13.43
2023-01-30T04:08:35.911Z,15.00
2023-01-30T04:10:39.289Z,16.40
2023-01-30T04:12:42.879Z,15.70
2023-01-30T04:14:46.041Z,15.03
2023-01-30T04:16:57.260Z,13.23
2023-01-30T04:19:22.054Z,13.03
2023-01-30T04:21:24.322Z,14.50
2023-01-30T04:23:26.566Z,14.37
2023-01-30T04:25:28.843Z,15.53
2023-01-30T04:27:31.532Z,14.70
2023-01-30T04:29:56.023Z,13.87
2023-01-30T04:31:58.257Z,14.27
2023-01-30T04:34:04.596Z,14.67
2023-01-30T04:36:08.556Z,14.37
2023-01-30T04:38:10.839Z,14.10
2023-01-30T04:40:13.249Z,15.23
2023-01-30T04:42:15.516Z,14.20
2023-01-30T04:44:29.687Z,16.03
2023-01-30T04:46:48.043Z,14.77
2023-01-30T04:48:51.084Z,14.37
2023-01-30T04:50:55.133Z,13.93
2023-01-30T04:52:57.323Z,14.80
2023-01-30T04:54:59.520Z,15.03
2023-01-30T04:57:01.607Z,15.60
2023-01-30T04:59:04.310Z,15.17
2023-01-30T05:01:32.888Z,14.73
2023-01-30T05:03:35.084Z,13.33
2023-01-30T05:05:37.259Z,15.03
2023-01-30T05:07:44.117Z,14.10
2023-01-30T05:09:46.243Z,14.63
2023-01-30T05:11:48.426Z,15.47
2023-01-30T05:13:50.937Z,12.77
2023-01-30T05:15:53.099Z,16.43
2023-01-30T05:17:55.224Z,15.57
2023-01-30T05:19:57.307Z,17.13
2023-01-30T05:21:59.514Z,15.00
2023-01-30T05:24:01.773Z,14.30
2023-01-30T05:26:04.565Z,15.00
2023-01-30T05:28:06.686Z,13.83
2023-01-30T05:30:09.441Z,17.00
2023-01-30T05:32:15.663Z,15.73
2023-01-30T05:34:17.788Z,16.17
2023-01-30T05:36:21.446Z,14.27
2023-01-30T05:38:24.172Z,14.63
2023-01-30T05:40:28.026Z,13.30
2023-01-30T05:42:30.282Z,13.47
2023-01-30T05:44:32.610Z,15.47
2023-01-30T05:46:34.967Z,15.10
2023-01-30T05:48:37.058Z,15.67
2023-01-30T05:50:39.166Z,16.10
2023-01-30T05:52:41.442Z,15.07
2023-01-30T05:54:43.587Z,14.57
2023-01-30T05:56:50.020Z,14.63
2023-01-30T05:58:56.481Z,15.47
2023-01-30T06:01:09.699Z,16.20
2023-01-30T06:03:11.830Z,14.67
2023-01-30T06:05:14.392Z,13.90
2023-01-30T06:07:16.582Z,15.00
2023-01-30T06:09:18.712Z,12.70
2023-01-30T06:11:20.892Z,16.60
2023-01-30T06:13:23.066Z,15.90
2023-01-30T06:15:25.266Z,14.70
2023-01-30T06:17:29.123Z,14.50
2023-01-30T06:19:32.255Z,16.13
2023-01-30T06:21:34.409Z,16.63
2023-01-30T06:23:36.637Z,13.27
2023-01-30T06:25:38.801Z,16.10
2023-01-30T06:27:41.073Z,13.47
2023-01-30T06:29:43.153Z,15.70
2023-01-30T06:31:45.373Z,13.40
2023-01-30T06:33:49.426Z,13.20
2023-01-30T06:35:52.622Z,15.10
2023-01-30T06:37:54.731Z,13.60
2023-01-30T06:39:56.791Z,13.30
2023-01-30T06:41:59.106Z,16.20
2023-01-30T06:44:01.266Z,17.73
2023-01-30T06:46:03.504Z,12.57
2023-01-30T06:48:06.004Z,14.30
2023-01-30T06:50:08.523Z,13.30
2023-01-30T06:52:10.644Z,16.23
2023-01-30T06:54:12.982Z,15.63
2023-01-30T06:56:15.195Z,14.80
2023-01-30T06:58:17.425Z,13.87
2023-01-30T07:00:20.545Z,15.20
2023-01-30T07:02:22.709Z,14.30
2023-01-30T07:04:24.949Z,13.70
2023-01-30T07:06:27.684Z,13.27
2023-01-30T07:08:29.855Z,14.17
2023-01-30T07:10:32.626Z,13.30
2023-01-30T07:12:34.835Z,14.27
2023-01-30T07:14:36.915Z,11.50
2023-01-30T07:16:39.115Z,12.10
2023-01-30T07:18:41.297Z,13.30
2023-01-30T07:20:47.250Z,12.80
2023-01-30T07:22:56.157Z,13.20
2023-01-30T07:24:58.302Z,11.20
2023-01-30T07:27:00.356Z,12.63
2023-01-30T07:29:02.352Z,13.03
2023-01-30T07:31:04.435Z,11.83
2023-01-30T07:33:06.925Z,12.90
2023-01-30T07:35:09.593Z,10.27
2023-01-30T07:37:11.758Z,11.90
2023-01-30T07:39:13.859Z,10.47
2023-01-30T07:41:16.020Z,12.03
2023-01-30T07:43:18.306Z,11.17
2023-01-30T07:45:20.460Z,12.40
2023-01-30T07:47:22.446Z,9.47
2023-01-30T07:49:24.605Z,10.80
2023-01-30T07:51:26.662Z,11.00
2023-01-30T07:53:28.692Z,10.03
2023-01-30T07:55:30.730Z,10.37
2023-01-30T07:57:32.857Z,10.90
2023-01-30T07:59:34.995Z,10.47
2023-01-30T08:01:37.097Z,9.70
2023-01-30T08:03:39.230Z,9.77
2023-01-30T08:05:41.337Z,10.47
2023-01-30T08:07:43.330Z,9.63
2023-01-30T08:09:45.321Z,9.37
2023-01-30T08:11:47.330Z,9.87
2023-01-30T08:13:49.451Z,8.40
2023-01-30T08:15:51.495Z,15.03
2023-01-30T08:17:56.911Z,16.63
2023-01-30T08:19:58.848Z,9.30
2023-01-30T08:22:00.904Z,8.47
2023-01-30T08:24:02.954Z,9.47
2023-01-30T08:26:06.221Z,10.13
2023-01-30T08:28:08.349Z,9.33
2023-01-30T08:30:12.302Z,8.20
2023-01-30T08:32:15.813Z,8.37
2023-01-30T08:34:17.881Z,8.20
2023-01-30T08:36:19.864Z,7.60
2023-01-30T08:38:21.788Z,9.40
2023-01-30T08:40:23.848Z,8.70
2023-01-30T08:42:25.868Z,9.27
2023-01-30T08:44:27.938Z,7.57
2023-01-30T08:46:30.068Z,7.40
2023-01-30T08:48:43.535Z,8.93
2023-01-30T08:50:55.556Z,7.60
2023-01-30T08:52:57.647Z,8.00
2023-01-30T08:54:59.639Z,6.60
2023-01-30T08:57:01.782Z,7.23
2023-01-30T08:59:03.902Z,14.40
2023-01-30T09:01:07.052Z,6.63
2023-01-30T09:03:09.055Z,10.60
2023-01-30T09:05:11.223Z,9.47
2023-01-30T09:07:13.161Z,8.00
2023-01-30T09:09:15.177Z,8.80
2023-01-30T09:11:17.629Z,6.17
2023-01-30T09:13:19.610Z,7.70
2023-01-30T09:15:21.609Z,7.00
2023-01-30T09:17:24.475Z,7.80
2023-01-30T09:19:27.683Z,6.30
2023-01-30T09:21:30.600Z,6.20
2023-01-30T09:23:32.728Z,5.63
2023-01-30T09:25:34.881Z,5.53
2023-01-30T09:27:37.138Z,5.00
2023-01-30T09:29:39.199Z,5.10
2023-01-30T09:31:41.546Z,4.40
2023-01-30T09:33:43.636Z,4.97
2023-01-30T09:35:49.410Z,4.73
2023-01-30T09:37:53.283Z,3.90
2023-01-30T09:39:55.319Z,4.80
2023-01-30T09:42:06.108Z,4.47
2023-01-30T09:44:18.790Z,4.50
2023-01-30T09:46:26.779Z,3.90
2023-01-30T09:49:19.932Z,4.07
2023-01-30T09:51:22.059Z,3.63
2023-01-30T09:53:25.913Z,3.87
2023-01-30T09:55:29.351Z,3.80
2023-01-30T09:57:31.309Z,3.40
2023-01-30T09:59:49.678Z,3.60
2023-01-30T10:02:22.049Z,3.60
2023-01-30T10:04:40.351Z,4.30
2023-01-30T10:06:59.679Z,5.07
2023-01-30T10:09:16.088Z,4.30
2023-01-30T10:11:49.019Z,3.57
2023-01-30T10:14:17.516Z,4.63
2023-01-30T10:16:29.463Z,3.90
2023-01-30T10:18:46.654Z,3.53
2023-01-30T10:21:28.094Z,3.37
2023-01-30T10:24:24.091Z,3.90
2023-01-30T10:26:27.322Z,3.60
2023-01-30T10:28:35.533Z,3.57
2023-01-30T10:30:38.020Z,4.20
2023-01-30T10:32:44.582Z,4.07
2023-01-30T10:34:50.996Z,3.23
2023-01-30T10:37:01.020Z,5.20
2023-01-30T10:39:04.508Z,3.50
2023-01-30T10:41:38.124Z,3.20
2023-01-30T10:43:43.327Z,3.77
2023-01-30T10:45:51.299Z,3.50
2023-01-30T10:48:28.709Z,3.47
2023-01-30T10:50:51.366Z,3.50
2023-01-30T10:53:02.651Z,3.37
2023-01-30T10:55:36.298Z,4.27
2023-01-30T10:57:44.803Z,4.10
2023-01-30T10:59:54.478Z,4.63
2023-01-30T11:02:24.444Z,3.70
2023-01-30T11:04:33.866Z,4.20
2023-01-30T11:06:35.873Z,3.60
2023-01-30T11:08:37.884Z,2.77
2023-01-30T11:10:39.895Z,4.10
2023-01-30T11:12:41.854Z,2.87
2023-01-30T11:15:04.658Z,5.87
2023-01-30T11:17:06.708Z,2.80
2023-01-30T11:19:24.185Z,2.97
2023-01-30T11:21:38.498Z,3.27
2023-01-30T11:23:45.903Z,2.67
2023-01-30T11:25:59.260Z,3.93
2023-01-30T11:28:07.684Z,3.97
2023-01-30T11:30:18.580Z,2.80
2023-01-30T11:32:26.983Z,3.37
2023-01-30T11:34:29.206Z,4.93
2023-01-30T11:36:35.039Z,2.87
2023-01-30T11:38:40.212Z,3.67
2023-01-30T11:40:42.411Z,2.80
2023-01-30T11:42:46.767Z,2.67
2023-01-30T11:45:06.456Z,2.60
2023-01-30T11:47:22.612Z,2.40
2023-01-30T11:49:45.108Z,2.90
2023-01-30T11:51:52.744Z,3.00
2023-01-30T11:54:01.307Z,2.50
2023-01-30T11:56:34.049Z,2.60
2023-01-30T11:58:39.175Z,2.53
2023-01-30T12:00:43.274Z,2.57
2023-01-30T12:02:48.062Z,2.70
2023-01-30T12:04:57.143Z,3.00
2023-01-30T12:07:21.926Z,3.13
2023-01-30T12:09:36.880Z,2.80
2023-01-30T12:11:42.216Z,3.27
2023-01-30T12:13:45.567Z,2.83
2023-01-30T12:15:52.878Z,3.13
2023-01-30T12:18:12.158Z,3.20
2023-01-30T12:20:24.693Z,2.90
2023-01-30T12:22:40.257Z,3.10
2023-01-30T12:24:51.287Z,3.83
2023-01-30T12:26:58.512Z,3.43
2023-01-30T12:29:15.574Z,3.70
2023-01-30T12:31:25.728Z,2.83
2023-01-30T12:33:30.576Z,3.00
2023-01-30T12:36:07.063Z,3.03
2023-01-30T12:38:30.961Z,3.07
2023-01-30T12:40:47.197Z,3.43
2023-01-30T12:43:11.095Z,2.87
2023-01-30T12:45:25.702Z,3.60
2023-01-30T12:47:36.958Z,2.10
2023-01-30T12:49:57.572Z,3.27
2023-01-30T12:52:23.124Z,3.30
2023-01-30T12:54:37.552Z,2.80
2023-01-30T12:56:49.395Z,2.90
2023-01-30T12:59:48.431Z,2.80
2023-01-30T13:01:58.495Z,2.93
2023-01-30T13:04:34.525Z,2.97
2023-01-30T13:07:02.072Z,3.50
2023-01-30T13:09:07.165Z,4.00
2023-01-30T13:11:20.811Z,3.93
2023-01-30T13:13:36.034Z,2.63
2023-01-30T13:15:40.972Z,2.77
2023-01-30T13:17:55.809Z,2.77
2023-01-30T13:20:05.846Z,3.07
2023-01-30T13:22:43.126Z,3.13
2023-01-30T13:24:47.894Z,3.17
2023-01-30T13:26:51.041Z,4.20
2023-01-30T13:28:58.261Z,3.50
2023-01-30T13:31:00.561Z,2.80
2023-01-30T13:33:12.041Z,3.03
2023-01-30T13:35:17.960Z,3.13
2023-01-30T13:37:20.639Z,2.67
2023-01-30T13:39:33.926Z,2.73
2023-01-30T13:41:39.697Z,2.13
2023-01-30T13:43:46.937Z,2.43
2023-01-30T13:45:52.609Z,2.17
2023-01-30T13:48:42.550Z,2.20
2023-01-30T13:51:09.525Z,3.00
2023-01-30T13:53:23.928Z,2.70
2023-01-30T13:55:34.958Z,3.27
2023-01-30T13:57:58.182Z,2.40
2023-01-30T14:00:22.855Z,3.17
2023-01-30T14:02:25.641Z,2.80
2023-01-30T14:04:30.376Z,2.90
2023-01-30T14:06:38.609Z,2.83
2023-01-30T14:08:46.718Z,3.67
2023-01-30T14:10:50.016Z,3.03
2023-01-30T14:12:55.776Z,2.60
2023-01-30T14:15:00.633Z,3.00
2023-01-30T14:17:14.509Z,2.77
2023-01-30T14:19:34.841Z,3.37
2023-01-30T14:21:38.511Z,2.37
2023-01-30T14:23:42.491Z,3.10
2023-01-30T14:25:47.636Z,2.53
2023-01-30T14:28:16.342Z,2.73
2023-01-30T14:30:55.956Z,2.10
2023-01-30T14:33:00.279Z,2.70
2023-01-30T14:35:17.046Z,2.57
2023-01-30T14:37:35.211Z,2.23
2023-01-30T14:39:39.844Z,2.60
2023-01-30T14:41:41.879Z,2.70
2023-01-30T14:43:43.812Z,2.23
2023-01-30T14:45:48.939Z,2.00
2023-01-30T14:48:29.278Z,2.30
2023-01-30T14:50:31.398Z,2.57
2023-01-30T14:52:41.362Z,2.90
2023-01-30T14:54:48.533Z,3.47
2023-01-30T14:57:08.128Z,2.70
2023-01-30T14:59:23.589Z,2.80
2023-01-30T15:01:25.994Z,2.40
2023-01-30T15:03:28.105Z,3.13
2023-01-30T15:05:41.609Z,2.60
2023-01-30T15:08:03.671Z,5.60
2023-01-30T15:10:10.972Z,4.27
2023-01-30T15:12:26.000Z,2.53
2023-01-30T15:14:55.905Z,2.73
2023-01-30T15:17:09.342Z,3.10
2023-01-30T15:19:21.072Z,2.80
2023-01-30T15:21:50.387Z,2.53
2023-01-30T15:23:54.023Z,2.67
2023-01-30T15:26:29.043Z,2.90
2023-01-30T15:28:47.017Z,2.60
2023-01-30T15:31:11.616Z,3.07
2023-01-30T15:33:29.891Z,4.10
2023-01-30T15:35:32.749Z,3.10
2023-01-30T15:37:37.617Z,3.43
2023-01-30T15:39:40.244Z,2.87
2023-01-30T15:41:43.263Z,3.03
2023-01-30T15:43:48.375Z,2.93
2023-01-30T15:46:06.898Z,2.67
2023-01-30T15:48:30.754Z,3.37
2023-01-30T15:50:32.786Z,2.73
2023-01-30T15:52:37.852Z,3.90
2023-01-30T15:54:39.932Z,4.00
2023-01-30T15:56:42.097Z,4.30
2023-01-30T15:58:44.409Z,3.17
2023-01-30T16:00:48.396Z,2.60
2023-01-30T16:02:50.545Z,3.30
2023-01-30T16:05:05.434Z,3.63
2023-01-30T16:07:26.673Z,3.50
2023-01-30T16:09:28.690Z,3.50
2023-01-30T16:11:43.094Z,3.50
2023-01-30T16:13:45.085Z,3.33
2023-01-30T16:15:56.138Z,3.13
2023-01-30T16:18:05.623Z,3.30
2023-01-30T16:20:13.070Z,2.70
2023-01-30T16:22:17.360Z,2.80
2023-01-30T16:24:25.495Z,3.33
2023-01-30T16:26:27.757Z,3.03
2023-01-30T16:28:31.203Z,2.43
2023-01-30T16:30:34.250Z,4.47
2023-01-30T16:32:36.683Z,2.20
2023-01-30T16:34:39.617Z,3.80
2023-01-30T16:36:41.710Z,3.20
2023-01-30T16:38:46.077Z,3.73
2023-01-30T16:40:48.044Z,2.90
2023-01-30T16:43:04.503Z,3.80
2023-01-30T16:45:12.378Z,4.10
2023-01-30T16:47:23.277Z,3.40
2023-01-30T16:49:37.261Z,3.30
2023-01-30T16:51:40.040Z,3.30
2023-01-30T16:53:51.982Z,2.97
2023-01-30T16:55:59.718Z,3.27
2023-01-30T16:58:03.443Z,3.40
2023-01-30T17:00:10.212Z,2.90
2023-01-30T17:02:25.105Z,3.30
2023-01-30T17:04:30.348Z,2.80
2023-01-30T17:06:37.012Z,3.10
2023-01-30T17:08:56.018Z,2.97
2023-01-30T17:10:59.326Z,3.00
2023-01-30T17:13:01.360Z,2.80
2023-01-30T17:15:26.434Z,3.53
2023-01-30T17:17:28.420Z,3.33
2023-01-30T17:19:30.689Z,3.43
2023-01-30T17:21:44.264Z,3.50
2023-01-30T17:23:52.386Z,2.87
2023-01-30T17:25:54.433Z,4.20
2023-01-30T17:27:56.901Z,3.20
2023-01-30T17:29:59.012Z,3.23
2023-01-30T17:32:01.321Z,3.70
2023-01-30T17:34:03.301Z,3.50
2023-01-30T17:36:07.198Z,2.90
2023-01-30T17:38:09.555Z,2.97
2023-01-30T17:40:17.386Z,2.90
2023-01-30T17:42:21.984Z,4.10
2023-01-30T17:44:24.663Z,3.53
2023-01-30T17:46:46.901Z,4.27
2023-01-30T17:48:48.970Z,3.80
2023-01-30T17:50:51.121Z,2.97
2023-01-30T17:52:53.282Z,3.67
2023-01-30T17:54:55.300Z,3.13
2023-01-30T17:57:02.357Z,3.43
2023-01-30T17:59:18.297Z,3.40
2023-01-30T18:01:20.381Z,3.30
2023-01-30T18:03:22.420Z,3.77
2023-01-30T18:05:24.501Z,2.90
2023-01-30T18:07:29.054Z,2.80
2023-01-30T18:09:31.834Z,3.50
2023-01-30T18:11:33.971Z,3.20
2023-01-30T18:13:36.546Z,3.27
2023-01-30T18:15:38.631Z,4.00
2023-01-30T18:17:46.060Z,3.40
2023-01-30T18:19:49.461Z,3.10
2023-01-30T18:21:51.549Z,3.47
2023-01-30T18:23:53.533Z,3.13
2023-01-30T18:25:55.539Z,3.20
2023-01-30T18:27:57.558Z,4.00
2023-01-30T18:29:59.488Z,3.50
2023-01-30T18:32:05.731Z,3.00
2023-01-30T18:34:07.967Z,4.10
2023-01-30T18:36:12.405Z,3.53
2023-01-30T18:38:14.356Z,3.30
2023-01-30T18:40:16.335Z,3.20
2023-01-30T18:42:18.445Z,2.90
2023-01-30T18:44:20.547Z,4.00
2023-01-30T18:46:22.662Z,3.63
2023-01-30T18:48:24.708Z,3.70
2023-01-30T18:50:26.683Z,4.10
2023-01-30T18:52:28.705Z,2.87
2023-01-30T18:54:30.672Z,3.90
2023-01-30T18:56:33.747Z,4.17
2023-01-30T18:58:36.130Z,4.27
2023-01-30T19:00:38.628Z,3.30
2023-01-30T19:02:40.891Z,3.23
2023-01-30T19:04:43.050Z,3.27
2023-01-30T19:06:45.219Z,3.20
2023-01-30T19:08:47.398Z,3.73
2023-01-30T19:10:49.907Z,4.50
2023-01-30T19:13:10.656Z,3.23
2023-01-30T19:15:12.876Z,3.20
2023-01-30T19:17:16.422Z,4.23
2023-01-30T19:19:18.682Z,3.43
2023-01-30T19:21:21.536Z,3.70
2023-01-30T19:23:27.230Z,5.23
2023-01-30T19:25:29.317Z,3.80
2023-01-30T19:27:31.459Z,3.90
2023-01-30T19:29:33.622Z,3.63
2023-01-30T19:31:35.861Z,3.73
2023-01-30T19:33:37.983Z,3.47
2023-01-30T19:35:42.362Z,3.83
2023-01-30T19:37:44.532Z,3.30
2023-01-30T19:39:46.840Z,5.37
2023-01-30T19:41:49.013Z,2.67
2023-01-30T19:43:52.123Z,3.23
2023-01-30T19:45:58.872Z,3.80
2023-01-30T19:48:01.005Z,4.53
2023-01-30T19:50:03.466Z,2.90
2023-01-30T19:52:05.576Z,3.10
2023-01-30T19:54:10.862Z,3.13
2023-01-30T19:56:13.824Z,3.37
2023-01-30T19:58:15.913Z,3.70
2023-01-30T20:00:18.827Z,4.43
2023-01-30T20:02:21.038Z,4.20
2023-01-30T20:04:23.171Z,3.63
2023-01-30T20:06:27.991Z,3.77
2023-01-30T20:08:32.792Z,3.90
2023-01-30T20:10:35.993Z,3.87
2023-01-30T20:12:38.183Z,3.90
2023-01-30T20:14:40.264Z,4.30
2023-01-30T20:16:42.460Z,2.90
2023-01-30T20:18:46.181Z,3.87
2023-01-30T20:20:48.339Z,3.40
2023-01-30T20:22:50.506Z,3.90
2023-01-30T20:24:52.657Z,3.17
2023-01-30T20:26:54.836Z,3.27
2023-01-30T20:28:57.542Z,3.10
2023-01-30T20:31:00.313Z,3.70
2023-01-30T20:33:02.509Z,3.33
2023-01-30T20:35:04.832Z,4.10
2023-01-30T20:37:06.998Z,4.03
2023-01-30T20:39:09.259Z,3.33
2023-01-30T20:41:16.406Z,3.73
2023-01-30T20:43:18.644Z,3.67
2023-01-30T20:45:20.834Z,4.00
2023-01-30T20:47:22.958Z,3.10
2023-01-30T20:49:25.115Z,3.90
2023-01-30T20:51:33.058Z,3.70
2023-01-30T20:53:35.949Z,3.50
2023-01-30T20:55:38.349Z,4.57
2023-01-30T20:57:43.112Z,4.13
2023-01-30T20:59:46.764Z,3.40
2023-01-30T21:01:48.910Z,4.80
2023-01-30T21:03:53.392Z,3.23
2023-01-30T21:05:57.258Z,4.73
2023-01-30T21:07:59.392Z,3.50
2023-01-30T21:10:01.517Z,3.93
2023-01-30T21:12:04.335Z,3.50
2023-01-30T21:14:07.436Z,3.07
2023-01-30T21:16:23.007Z,3.93
2023-01-30T21:18:25.143Z,3.50
2023-01-30T21:20:27.262Z,3.37
2023-01-30T21:22:29.391Z,3.97
2023-01-30T21:24:31.539Z,3.00
2023-01-30T21:26:35.099Z,3.40
2023-01-30T21:28:37.974Z,2.77
2023-01-30T21:30:42.071Z,2.50
2023-01-30T21:32:44.257Z,4.13
2023-01-30T21:34:46.367Z,3.17
2023-01-30T21:37:08.522Z,3.60
2023-01-30T21:39:32.223Z,4.00
2023-01-30T21:41:45.010Z,3.70
2023-01-30T21:43:50.224Z,2.67
2023-01-30T21:45:57.547Z,5.03
2023-01-30T21:47:59.664Z,3.87
2023-01-30T21:50:02.026Z,3.63
2023-01-30T21:52:04.386Z,3.10
2023-01-30T21:54:06.576Z,5.07
2023-01-30T21:56:08.823Z,3.90
2023-01-30T21:58:11.017Z,3.50
2023-01-30T22:00:13.835Z,3.30
2023-01-30T22:02:16.011Z,2.90
2023-01-30T22:04:19.526Z,3.37
2023-01-30T22:06:21.670Z,3.53
2023-01-30T22:08:23.794Z,3.77
2023-01-30T22:10:25.902Z,3.80
2023-01-30T22:12:28.505Z,3.07
2023-01-30T22:14:30.987Z,3.43
2023-01-30T22:16:33.785Z,3.90
2023-01-30T22:18:36.427Z,4.10
2023-01-30T22:20:38.614Z,3.10
2023-01-30T22:22:40.767Z,3.30
2023-01-30T22:24:43.089Z,4.00
2023-01-30T22:26:45.481Z,3.57
2023-01-30T22:28:48.195Z,3.60
2023-01-30T22:30:50.380Z,3.87
2023-01-30T22:32:55.055Z,4.13
2023-01-30T22:34:57.279Z,3.90
2023-01-30T22:36:59.494Z,3.67
2023-01-30T22:39:02.175Z,5.27
2023-01-30T22:41:11.155Z,4.63
2023-01-30T22:43:13.267Z,3.80
2023-01-30T22:45:15.352Z,4.07
2023-01-30T22:47:17.468Z,2.47
2023-01-30T22:49:19.600Z,3.90
2023-01-30T22:51:23.987Z,4.93
2023-01-30T22:53:26.080Z,4.20
2023-01-30T22:55:28.227Z,4.03
2023-01-30T22:57:30.399Z,4.10
2023-01-30T22:59:32.987Z,6.43
2023-01-30T23:01:39.875Z,4.00
2023-01-30T23:03:43.349Z,3.53
2023-01-30T23:05:45.434Z,3.77
2023-01-30T23:07:47.620Z,3.50
2023-01-30T23:09:49.826Z,3.63
2023-01-30T23:12:13.762Z,3.33
2023-01-30T23:14:18.031Z,3.10
2023-01-30T23:16:25.047Z,2.47
2023-01-30T23:18:46.355Z,2.70
2023-01-30T23:20:48.517Z,2.90
2023-01-30T23:22:51.361Z,2.20
2023-01-30T23:24:53.519Z,1.97
2023-01-30T23:26:55.605Z,2.40
2023-01-30T23:28:58.281Z,2.40
2023-01-30T23:31:15.638Z,1.90
2023-01-30T23:33:17.837Z,2.60
2023-01-30T23:35:20.385Z,1.77
2023-01-30T23:37:42.593Z,2.03
2023-01-30T23:39:45.398Z,2.00
2023-01-30T23:41:47.559Z,1.80
2023-01-30T23:43:50.726Z,2.57
2023-01-30T23:45:55.872Z,2.40
2023-01-30T23:47:58.150Z,2.37
2023-01-30T23:50:00.336Z,2.60
2023-01-30T23:52:02.420Z,2.67
2023-01-30T23:54:05.669Z,2.40
2023-01-30T23:56:08.361Z,3.63
2023-01-30T23:58:10.459Z,3.07
